Chucks Airport


Codes: 0II0/
Name: Chucks Airport
City: Albany
Country: United States
Elevation: 955 ft.

Photos at Chucks Airport


   Photos courtesy of SpottingLog. You can add your own sightings and photos by signing up for a free trial today.



No photos found.

Weather at Chucks Airport


Time (UTC)DescriptionTempratureWindCloud coverageVisibilityPressureHumidity
21-Jun-2024 12:00Clear Sky22°C4 mph, W1%10000m1024hPa83%
21-Jun-2024 15:00Clear Sky26°C4 mph, W1%10000m1023hPa70%
21-Jun-2024 18:00Light Rain32°C7 mph, NW4%10000m1021hPa51%
21-Jun-2024 21:00Broken Clouds32°C4 mph, W71%10000m1019hPa44%
22-Jun-2024 00:00Broken Clouds28°C7 mph, SW62%10000m1019hPa69%
22-Jun-2024 03:00Broken Clouds26°C4 mph, SW67%10000m1019hPa67%
22-Jun-2024 06:00Broken Clouds23°C4 mph, SW60%10000m1018hPa78%
22-Jun-2024 09:00Clear Sky22°C7 mph, SW5%10000m1018hPa79%
22-Jun-2024 12:00Few Clouds24°C7 mph, SW12%10000m1018hPa80%
22-Jun-2024 15:00Overcast Clouds28°C11 mph, SW100%10000m1017hPa62%
22-Jun-2024 18:00Overcast Clouds31°C13 mph, SW97%10000m1015hPa49%
22-Jun-2024 21:00Scattered Clouds31°C13 mph, SW49%10000m1013hPa50%
23-Jun-2024 00:00Broken Clouds28°C9 mph, SW51%10000m1011hPa68%
23-Jun-2024 03:00Scattered Clouds25°C13 mph, SW48%10000m1011hPa73%
23-Jun-2024 06:00Broken Clouds24°C13 mph, SW58%10000m1010hPa75%
23-Jun-2024 09:00Overcast Clouds24°C16 mph, SW100%10000m1008hPa73%
23-Jun-2024 12:00Light Rain21°C11 mph, SW100%5991m1009hPa94%
23-Jun-2024 15:00Light Rain24°C13 mph, W100%10000m1008hPa81%
23-Jun-2024 18:00Light Rain25°C13 mph, W100%10000m1009hPa83%
23-Jun-2024 21:00Light Rain26°C11 mph, NW90%10000m1008hPa76%
24-Jun-2024 00:00Broken Clouds23°C9 mph, NW76%10000m1009hPa77%
24-Jun-2024 03:00Clear Sky19°C7 mph, NW0%10000m1010hPa92%
24-Jun-2024 06:00Clear Sky17°C7 mph, NW0%10000m1011hPa96%
24-Jun-2024 09:00Clear Sky16°C4 mph, NW0%10000m1011hPa95%
24-Jun-2024 12:00Clear Sky18°C4 mph, NW0%10000m1013hPa86%
24-Jun-2024 15:00Clear Sky24°C4 mph, W0%10000m1013hPa68%
24-Jun-2024 18:00Clear Sky27°C4 mph, W0%10000m1012hPa52%
24-Jun-2024 21:00Clear Sky29°C7 mph, W4%10000m1011hPa48%
25-Jun-2024 00:00Clear Sky28°C2 mph, W3%10000m1011hPa62%
25-Jun-2024 03:00Clear Sky23°C7 mph, S0%10000m1011hPa77%
25-Jun-2024 06:00Clear Sky21°C9 mph, S0%10000m1011hPa83%
25-Jun-2024 09:00Light Rain20°C9 mph, S9%10000m1011hPa92%
25-Jun-2024 12:00Light Rain22°C11 mph, S5%10000m1011hPa86%
25-Jun-2024 15:00Clear Sky28°C16 mph, SW3%10000m1010hPa70%
25-Jun-2024 18:00Clear Sky32°C18 mph, SW10%10000m1008hPa59%
25-Jun-2024 21:00Clear Sky33°C16 mph, SW0%10000m1007hPa54%
26-Jun-2024 00:00Clear Sky29°C16 mph, SW1%10000m1005hPa69%
26-Jun-2024 03:00Light Rain26°C16 mph, SW32%10000m1006hPa78%
26-Jun-2024 06:00Light Rain24°C16 mph, SW37%10000m1006hPa81%
26-Jun-2024 09:00Moderate Rain21°C7 mph, SW100%10000m1006hPa93%